ΕΜΥ, Εθνική Μετεωρολογική Υπηρεσία - Δελτία Καιρού, Προγνώσεις

ΑΕΡΟΝΑΥΤΙΛΙΑ

GREEK AIRPORTS CODES

LGSR 072120Z 36020KT 9999 BKN025 06/00 Q1026=

EUROPEAN AIRPORTS CODES

LFPO 080030Z 36003KT CAVOK M01/M04 Q1036 NOSIG=